sensor_id;sensor_type;location;lat;lon;timestamp;P1;durP1;ratioP1;P2;durP2;ratioP2
38615;SDS011;24370;51.986;4.666;2023-06-10T00:01:54;1463.80;;;999.90;;
38615;SDS011;24370;51.986;4.666;2023-06-10T00:04:24;1449.50;;;999.90;;
38615;SDS011;24370;51.986;4.666;2023-06-10T00:06:50;1474.63;;;999.90;;
38615;SDS011;24370;51.986;4.666;2023-06-10T00:09:15;1564.25;;;999.90;;
38615;SDS011;24370;51.986;4.666;2023-06-10T00:11:41;1610.63;;;999.90;;
38615;SDS011;24370;51.986;4.666;2023-06-10T00:14:07;1570.10;;;999.90;;
38615;SDS011;24370;51.986;4.666;2023-06-10T00:16:33;1513.22;;;999.90;;
38615;SDS011;24370;51.986;4.666;2023-06-10T00:19:01;1455.20;;;999.90;;
38615;SDS011;24370;51.986;4.666;2023-06-10T00:21:28;1410.57;;;999.90;;
38615;SDS011;24370;51.986;4.666;2023-06-10T00:24:03;1396.22;;;999.90;;
38615;SDS011;24370;51.986;4.666;2023-06-10T00:26:30;1455.28;;;999.90;;
38615;SDS011;24370;51.986;4.666;2023-06-10T00:28:55;1543.85;;;999.90;;
38615;SDS011;24370;51.986;4.666;2023-06-10T00:31:20;1487.93;;;999.90;;
38615;SDS011;24370;51.986;4.666;2023-06-10T00:33:46;1460.13;;;999.90;;
38615;SDS011;24370;51.986;4.666;2023-06-10T00:36:11;1465.10;;;999.90;;
38615;SDS011;24370;51.986;4.666;2023-06-10T00:38:36;1473.22;;;999.90;;
38615;SDS011;24370;51.986;4.666;2023-06-10T00:41:02;1483.75;;;999.90;;
38615;SDS011;24370;51.986;4.666;2023-06-10T00:43:27;1517.80;;;999.90;;
38615;SDS011;24370;51.986;4.666;2023-06-10T00:45:52;1498.43;;;999.90;;
38615;SDS011;24370;51.986;4.666;2023-06-10T00:48:18;1520.25;;;999.90;;
38615;SDS011;24370;51.986;4.666;2023-06-10T00:50:45;1566.18;;;999.90;;
38615;SDS011;24370;51.986;4.666;2023-06-10T00:53:11;1608.85;;;999.90;;
38615;SDS011;24370;51.986;4.666;2023-06-10T00:55:37;1608.70;;;999.90;;
38615;SDS011;24370;51.986;4.666;2023-06-10T00:58:03;1531.28;;;999.90;;
38615;SDS011;24370;51.986;4.666;2023-06-10T01:00:29;1505.30;;;999.90;;
38615;SDS011;24370;51.986;4.666;2023-06-10T01:02:54;1238.93;;;999.90;;
38615;SDS011;24370;51.986;4.666;2023-06-10T01:05:20;1196.30;;;999.90;;
38615;SDS011;24370;51.986;4.666;2023-06-10T01:10:46;1186.35;;;999.90;;
38615;SDS011;24370;51.986;4.666;2023-06-10T01:13:15;1188.68;;;999.90;;
38615;SDS011;24370;51.986;4.666;2023-06-10T01:15:42;1210.60;;;999.90;;
38615;SDS011;24370;51.986;4.666;2023-06-10T01:18:09;1208.80;;;999.90;;
38615;SDS011;24370;51.986;4.666;2023-06-10T01:20:40;1181.13;;;999.90;;
38615;SDS011;24370;51.986;4.666;2023-06-10T01:23:08;1186.75;;;999.90;;
38615;SDS011;24370;51.986;4.666;2023-06-10T01:25:36;1169.53;;;999.90;;
38615;SDS011;24370;51.986;4.666;2023-06-10T01:31:18;1201.65;;;999.90;;
38615;SDS011;24370;51.986;4.666;2023-06-10T01:33:39;1181.28;;;999.90;;
38615;SDS011;24370;51.986;4.666;2023-06-10T01:36:07;1178.93;;;999.90;;
38615;SDS011;24370;51.986;4.666;2023-06-10T01:38:36;1177.88;;;999.90;;
38615;SDS011;24370;51.986;4.666;2023-06-10T01:41:08;1182.63;;;999.90;;
38615;SDS011;24370;51.986;4.666;2023-06-10T01:43:37;1183.05;;;999.90;;
38615;SDS011;24370;51.986;4.666;2023-06-10T01:46:03;1205.93;;;999.90;;
38615;SDS011;24370;51.986;4.666;2023-06-10T01:48:28;1212.28;;;999.90;;
38615;SDS011;24370;51.986;4.666;2023-06-10T01:50:53;1214.72;;;999.90;;
38615;SDS011;24370;51.986;4.666;2023-06-10T01:53:21;1212.57;;;999.90;;
38615;SDS011;24370;51.986;4.666;2023-06-10T01:55:47;1243.55;;;999.90;;
38615;SDS011;24370;51.986;4.666;2023-06-10T01:58:12;1223.95;;;999.90;;
38615;SDS011;24370;51.986;4.666;2023-06-10T02:00:38;1282.22;;;999.90;;
38615;SDS011;24370;51.986;4.666;2023-06-10T02:03:03;1265.65;;;999.90;;
38615;SDS011;24370;51.986;4.666;2023-06-10T02:05:28;1251.05;;;999.90;;
38615;SDS011;24370;51.986;4.666;2023-06-10T02:07:54;1273.38;;;999.90;;
38615;SDS011;24370;51.986;4.666;2023-06-10T02:10:19;1267.50;;;999.90;;
38615;SDS011;24370;51.986;4.666;2023-06-10T02:12:45;1225.50;;;999.90;;
38615;SDS011;24370;51.986;4.666;2023-06-10T02:15:10;1236.38;;;999.90;;
38615;SDS011;24370;51.986;4.666;2023-06-10T02:17:35;1225.65;;;999.90;;
38615;SDS011;24370;51.986;4.666;2023-06-10T02:20:02;1194.53;;;999.90;;
38615;SDS011;24370;51.986;4.666;2023-06-10T02:22:31;1194.18;;;999.90;;
38615;SDS011;24370;51.986;4.666;2023-06-10T02:24:57;1216.00;;;999.90;;
38615;SDS011;24370;51.986;4.666;2023-06-10T02:27:22;1302.50;;;999.90;;
38615;SDS011;24370;51.986;4.666;2023-06-10T02:29:48;1278.28;;;999.90;;
38615;SDS011;24370;51.986;4.666;2023-06-10T02:32:13;1194.63;;;999.90;;
38615;SDS011;24370;51.986;4.666;2023-06-10T02:34:38;1178.03;;;999.90;;
38615;SDS011;24370;51.986;4.666;2023-06-10T02:37:04;1221.00;;;999.90;;
38615;SDS011;24370;51.986;4.666;2023-06-10T02:39:29;1180.32;;;999.90;;
38615;SDS011;24370;51.986;4.666;2023-06-10T02:41:55;1219.90;;;999.90;;
38615;SDS011;24370;51.986;4.666;2023-06-10T02:44:20;1233.72;;;999.90;;
38615;SDS011;24370;51.986;4.666;2023-06-10T02:46:46;1226.15;;;999.90;;
38615;SDS011;24370;51.986;4.666;2023-06-10T02:49:11;1236.68;;;999.90;;
38615;SDS011;24370;51.986;4.666;2023-06-10T02:51:37;1209.93;;;999.90;;
38615;SDS011;24370;51.986;4.666;2023-06-10T02:54:03;1249.40;;;999.90;;
38615;SDS011;24370;51.986;4.666;2023-06-10T02:56:29;1222.68;;;999.90;;
38615;SDS011;24370;51.986;4.666;2023-06-10T02:58:56;1179.35;;;999.90;;
38615;SDS011;24370;51.986;4.666;2023-06-10T03:01:22;1197.35;;;999.90;;
38615;SDS011;24370;51.986;4.666;2023-06-10T03:03:47;1176.03;;;999.90;;
38615;SDS011;24370;51.986;4.666;2023-06-10T03:06:13;1156.60;;;999.90;;
38615;SDS011;24370;51.986;4.666;2023-06-10T03:08:39;1164.07;;;999.90;;
38615;SDS011;24370;51.986;4.666;2023-06-10T03:11:05;1203.38;;;999.90;;
38615;SDS011;24370;51.986;4.666;2023-06-10T03:13:30;1163.60;;;999.90;;
38615;SDS011;24370;51.986;4.666;2023-06-10T03:15:57;1144.00;;;999.90;;
38615;SDS011;24370;51.986;4.666;2023-06-10T03:18:25;1141.93;;;999.90;;
38615;SDS011;24370;51.986;4.666;2023-06-10T03:20:51;1118.32;;;998.83;;
38615;SDS011;24370;51.986;4.666;2023-06-10T03:23:17;1115.93;;;997.75;;
38615;SDS011;24370;51.986;4.666;2023-06-10T03:25:43;1116.25;;;998.92;;
38615;SDS011;24370;51.986;4.666;2023-06-10T03:28:09;1120.03;;;999.53;;
38615;SDS011;24370;51.986;4.666;2023-06-10T03:30:37;1115.63;;;999.17;;
38615;SDS011;24370;51.986;4.666;2023-06-10T03:33:03;1141.43;;;999.90;;
38615;SDS011;24370;51.986;4.666;2023-06-10T03:35:29;1115.18;;;998.13;;
38615;SDS011;24370;51.986;4.666;2023-06-10T03:37:54;1113.63;;;997.58;;
38615;SDS011;24370;51.986;4.666;2023-06-10T03:40:20;1099.97;;;990.42;;
38615;SDS011;24370;51.986;4.666;2023-06-10T03:42:45;1096.45;;;987.78;;
38615;SDS011;24370;51.986;4.666;2023-06-10T03:45:10;1109.47;;;995.72;;
38615;SDS011;24370;51.986;4.666;2023-06-10T03:47:37;1114.88;;;998.47;;
38615;SDS011;24370;51.986;4.666;2023-06-10T03:50:03;1099.75;;;988.60;;
38615;SDS011;24370;51.986;4.666;2023-06-10T03:52:29;1107.65;;;994.47;;
38615;SDS011;24370;51.986;4.666;2023-06-10T03:54:55;1107.90;;;994.63;;
38615;SDS011;24370;51.986;4.666;2023-06-10T03:57:20;1113.38;;;996.88;;
38615;SDS011;24370;51.986;4.666;2023-06-10T03:59:46;1144.40;;;999.90;;
38615;SDS011;24370;51.986;4.666;2023-06-10T04:02:11;1122.32;;;998.92;;
38615;SDS011;24370;51.986;4.666;2023-06-10T04:04:37;1155.38;;;999.90;;
38615;SDS011;24370;51.986;4.666;2023-06-10T04:07:03;1157.43;;;999.90;;
38615;SDS011;24370;51.986;4.666;2023-06-10T04:09:29;1168.63;;;999.90;;
38615;SDS011;24370;51.986;4.666;2023-06-10T04:11:54;1151.53;;;999.90;;
38615;SDS011;24370;51.986;4.666;2023-06-10T04:14:19;1169.38;;;999.90;;
38615;SDS011;24370;51.986;4.666;2023-06-10T04:16:45;1156.85;;;999.90;;
38615;SDS011;24370;51.986;4.666;2023-06-10T04:19:10;1174.68;;;999.90;;
38615;SDS011;24370;51.986;4.666;2023-06-10T04:21:35;1225.00;;;999.90;;
38615;SDS011;24370;51.986;4.666;2023-06-10T04:24:01;1220.45;;;999.90;;
38615;SDS011;24370;51.986;4.666;2023-06-10T04:26:27;1214.88;;;999.90;;
38615;SDS011;24370;51.986;4.666;2023-06-10T04:28:52;1231.07;;;999.90;;
38615;SDS011;24370;51.986;4.666;2023-06-10T04:31:18;1169.13;;;999.90;;
38615;SDS011;24370;51.986;4.666;2023-06-10T04:33:44;1293.57;;;999.90;;
38615;SDS011;24370;51.986;4.666;2023-06-10T04:36:09;1198.30;;;999.90;;
38615;SDS011;24370;51.986;4.666;2023-06-10T04:38:35;1256.15;;;999.90;;
38615;SDS011;24370;51.986;4.666;2023-06-10T04:41:00;1268.07;;;999.90;;
38615;SDS011;24370;51.986;4.666;2023-06-10T04:43:26;1174.35;;;999.90;;
38615;SDS011;24370;51.986;4.666;2023-06-10T04:45:53;1297.85;;;999.90;;
38615;SDS011;24370;51.986;4.666;2023-06-10T04:48:18;1089.65;;;981.85;;
38615;SDS011;24370;51.986;4.666;2023-06-10T04:50:44;1065.60;;;961.97;;
38615;SDS011;24370;51.986;4.666;2023-06-10T04:53:09;995.85;;;906.78;;
38615;SDS011;24370;51.986;4.666;2023-06-10T04:55:35;928.67;;;850.83;;
38615;SDS011;24370;51.986;4.666;2023-06-10T04:58:01;831.65;;;767.45;;
38615;SDS011;24370;51.986;4.666;2023-06-10T05:00:26;773.38;;;715.45;;
38615;SDS011;24370;51.986;4.666;2023-06-10T05:02:52;715.40;;;663.60;;
38615;SDS011;24370;51.986;4.666;2023-06-10T05:05:18;665.05;;;617.40;;
38615;SDS011;24370;51.986;4.666;2023-06-10T05:07:43;662.45;;;615.47;;
38615;SDS011;24370;51.986;4.666;2023-06-10T05:10:09;603.45;;;560.08;;
38615;SDS011;24370;51.986;4.666;2023-06-10T05:12:35;621.25;;;577.28;;
38615;SDS011;24370;51.986;4.666;2023-06-10T05:15:00;634.17;;;589.75;;
38615;SDS011;24370;51.986;4.666;2023-06-10T05:17:26;622.35;;;578.35;;
38615;SDS011;24370;51.986;4.666;2023-06-10T05:19:52;665.47;;;618.17;;
38615;SDS011;24370;51.986;4.666;2023-06-10T05:22:18;728.78;;;675.15;;
38615;SDS011;24370;51.986;4.666;2023-06-10T05:24:43;830.22;;;766.05;;
38615;SDS011;24370;51.986;4.666;2023-06-10T05:27:09;868.63;;;797.22;;
38615;SDS011;24370;51.986;4.666;2023-06-10T05:29:35;945.00;;;862.17;;
38615;SDS011;24370;51.986;4.666;2023-06-10T05:32:01;1002.75;;;909.97;;
38615;SDS011;24370;51.986;4.666;2023-06-10T05:34:31;1027.80;;;929.80;;
38615;SDS011;24370;51.986;4.666;2023-06-10T05:36:56;1063.30;;;958.40;;
38615;SDS011;24370;51.986;4.666;2023-06-10T05:39:22;1057.03;;;953.78;;
38615;SDS011;24370;51.986;4.666;2023-06-10T05:41:47;1082.43;;;972.45;;
38615;SDS011;24370;51.986;4.666;2023-06-10T05:44:13;1065.18;;;960.78;;
38615;SDS011;24370;51.986;4.666;2023-06-10T05:46:38;1072.32;;;965.08;;
38615;SDS011;24370;51.986;4.666;2023-06-10T05:49:03;1095.72;;;982.38;;
38615;SDS011;24370;51.986;4.666;2023-06-10T05:51:29;1080.93;;;971.72;;
38615;SDS011;24370;51.986;4.666;2023-06-10T05:53:54;1087.75;;;977.05;;
38615;SDS011;24370;51.986;4.666;2023-06-10T05:56:20;1102.18;;;987.28;;
38615;SDS011;24370;51.986;4.666;2023-06-10T05:58:47;1091.18;;;980.22;;
38615;SDS011;24370;51.986;4.666;2023-06-10T06:01:13;1098.63;;;986.33;;
38615;SDS011;24370;51.986;4.666;2023-06-10T06:03:38;1102.85;;;989.35;;
38615;SDS011;24370;51.986;4.666;2023-06-10T06:06:04;1087.00;;;976.72;;
38615;SDS011;24370;51.986;4.666;2023-06-10T06:08:29;1075.65;;;968.13;;
38615;SDS011;24370;51.986;4.666;2023-06-10T06:10:55;1058.65;;;955.35;;
38615;SDS011;24370;51.986;4.666;2023-06-10T06:13:20;979.90;;;892.95;;
38615;SDS011;24370;51.986;4.666;2023-06-10T06:15:46;820.53;;;758.22;;
38615;SDS011;24370;51.986;4.666;2023-06-10T06:18:11;700.03;;;649.63;;
38615;SDS011;24370;51.986;4.666;2023-06-10T06:20:36;584.72;;;544.42;;
38615;SDS011;24370;51.986;4.666;2023-06-10T06:23:02;468.45;;;438.40;;
38615;SDS011;24370;51.986;4.666;2023-06-10T06:25:27;401.73;;;377.13;;
38615;SDS011;24370;51.986;4.666;2023-06-10T06:27:52;385.92;;;362.88;;
38615;SDS011;24370;51.986;4.666;2023-06-10T06:30:18;395.08;;;371.88;;
38615;SDS011;24370;51.986;4.666;2023-06-10T06:32:43;615.40;;;563.22;;
38615;SDS011;24370;51.986;4.666;2023-06-10T06:35:08;510.33;;;478.60;;
38615;SDS011;24370;51.986;4.666;2023-06-10T06:37:35;420.05;;;395.95;;
38615;SDS011;24370;51.986;4.666;2023-06-10T06:40:01;443.40;;;417.30;;
38615;SDS011;24370;51.986;4.666;2023-06-10T06:42:26;461.98;;;434.63;;
38615;SDS011;24370;51.986;4.666;2023-06-10T06:44:52;500.80;;;470.42;;
38615;SDS011;24370;51.986;4.666;2023-06-10T06:47:17;539.97;;;505.60;;
38615;SDS011;24370;51.986;4.666;2023-06-10T06:49:45;537.88;;;504.48;;
38615;SDS011;24370;51.986;4.666;2023-06-10T06:52:11;512.30;;;479.77;;
38615;SDS011;24370;51.986;4.666;2023-06-10T06:54:36;513.65;;;481.73;;
38615;SDS011;24370;51.986;4.666;2023-06-10T06:57:01;520.75;;;487.70;;
38615;SDS011;24370;51.986;4.666;2023-06-10T06:59:27;548.50;;;512.30;;
38615;SDS011;24370;51.986;4.666;2023-06-10T07:01:52;571.72;;;533.25;;
38615;SDS011;24370;51.986;4.666;2023-06-10T07:04:19;531.67;;;496.35;;
38615;SDS011;24370;51.986;4.666;2023-06-10T07:06:46;529.88;;;494.23;;
38615;SDS011;24370;51.986;4.666;2023-06-10T07:09:12;527.13;;;491.40;;
38615;SDS011;24370;51.986;4.666;2023-06-10T07:11:37;504.20;;;470.50;;
38615;SDS011;24370;51.986;4.666;2023-06-10T07:14:02;482.25;;;450.85;;
38615;SDS011;24370;51.986;4.666;2023-06-10T07:16:28;533.55;;;497.63;;
38615;SDS011;24370;51.986;4.666;2023-06-10T07:18:53;562.50;;;523.97;;
38615;SDS011;24370;51.986;4.666;2023-06-10T07:21:19;556.50;;;519.05;;
38615;SDS011;24370;51.986;4.666;2023-06-10T07:23:44;588.67;;;548.53;;
38615;SDS011;24370;51.986;4.666;2023-06-10T07:26:10;528.40;;;492.48;;
38615;SDS011;24370;51.986;4.666;2023-06-10T07:28:36;578.88;;;538.58;;
38615;SDS011;24370;51.986;4.666;2023-06-10T07:31:02;532.25;;;496.92;;
38615;SDS011;24370;51.986;4.666;2023-06-10T07:33:28;538.72;;;503.05;;
38615;SDS011;24370;51.986;4.666;2023-06-10T07:35:54;511.27;;;478.50;;
38615;SDS011;24370;51.986;4.666;2023-06-10T07:38:19;545.63;;;509.60;;
38615;SDS011;24370;51.986;4.666;2023-06-10T07:40:45;288.38;;;272.30;;
38615;SDS011;24370;51.986;4.666;2023-06-10T07:43:10;160.48;;;151.57;;
38615;SDS011;24370;51.986;4.666;2023-06-10T07:45:36;185.52;;;175.45;;
38615;SDS011;24370;51.986;4.666;2023-06-10T07:48:01;231.45;;;218.82;;
38615;SDS011;24370;51.986;4.666;2023-06-10T07:50:26;191.85;;;181.48;;
38615;SDS011;24370;51.986;4.666;2023-06-10T07:52:52;222.25;;;210.25;;
38615;SDS011;24370;51.986;4.666;2023-06-10T07:55:17;164.48;;;155.43;;
38615;SDS011;24370;51.986;4.666;2023-06-10T07:57:42;187.75;;;177.65;;
38615;SDS011;24370;51.986;4.666;2023-06-10T08:00:08;213.05;;;201.57;;
38615;SDS011;24370;51.986;4.666;2023-06-10T08:02:37;215.40;;;203.75;;
38615;SDS011;24370;51.986;4.666;2023-06-10T08:05:02;198.27;;;187.40;;
38615;SDS011;24370;51.986;4.666;2023-06-10T08:07:28;183.85;;;173.93;;
38615;SDS011;24370;51.986;4.666;2023-06-10T08:09:53;186.00;;;175.75;;
38615;SDS011;24370;51.986;4.666;2023-06-10T08:12:19;190.70;;;180.10;;
38615;SDS011;24370;51.986;4.666;2023-06-10T08:14:45;194.35;;;183.95;;
38615;SDS011;24370;51.986;4.666;2023-06-10T08:17:10;223.90;;;211.85;;
38615;SDS011;24370;51.986;4.666;2023-06-10T08:19:36;214.13;;;202.68;;
38615;SDS011;24370;51.986;4.666;2023-06-10T08:22:01;205.93;;;194.73;;
38615;SDS011;24370;51.986;4.666;2023-06-10T08:24:27;214.50;;;203.15;;
38615;SDS011;24370;51.986;4.666;2023-06-10T08:26:52;233.45;;;220.82;;
38615;SDS011;24370;51.986;4.666;2023-06-10T08:29:17;429.88;;;404.23;;
38615;SDS011;24370;51.986;4.666;2023-06-10T08:31:44;333.77;;;314.85;;
38615;SDS011;24370;51.986;4.666;2023-06-10T08:34:10;372.80;;;351.10;;
38615;SDS011;24370;51.986;4.666;2023-06-10T08:36:35;344.83;;;324.95;;
38615;SDS011;24370;51.986;4.666;2023-06-10T08:39:01;397.27;;;373.67;;
38615;SDS011;24370;51.986;4.666;2023-06-10T08:41:28;421.52;;;396.48;;
38615;SDS011;24370;51.986;4.666;2023-06-10T08:46:47;349.50;;;329.38;;
38615;SDS011;24370;51.986;4.666;2023-06-10T08:49:15;1044.60;;;951.88;;
38615;SDS011;24370;51.986;4.666;2023-06-10T08:51:43;314.85;;;297.40;;
38615;SDS011;24370;51.986;4.666;2023-06-10T08:54:15;704.28;;;654.45;;
38615;SDS011;24370;51.986;4.666;2023-06-10T08:56:45;371.42;;;349.77;;
38615;SDS011;24370;51.986;4.666;2023-06-10T08:59:15;341.80;;;322.02;;
38615;SDS011;24370;51.986;4.666;2023-06-10T09:01:41;331.63;;;313.13;;
38615;SDS011;24370;51.986;4.666;2023-06-10T09:04:08;527.25;;;493.02;;
38615;SDS011;24370;51.986;4.666;2023-06-10T09:06:34;560.60;;;524.00;;
38615;SDS011;24370;51.986;4.666;2023-06-10T09:09:01;707.97;;;661.60;;
38615;SDS011;24370;51.986;4.666;2023-06-10T09:11:27;424.58;;;400.00;;
38615;SDS011;24370;51.986;4.666;2023-06-10T09:13:53;419.58;;;395.25;;
38615;SDS011;24370;51.986;4.666;2023-06-10T09:16:18;493.42;;;463.63;;
38615;SDS011;24370;51.986;4.666;2023-06-10T09:18:44;544.75;;;510.80;;
38615;SDS011;24370;51.986;4.666;2023-06-10T09:21:09;506.17;;;475.77;;
38615;SDS011;24370;51.986;4.666;2023-06-10T09:23:35;366.48;;;345.83;;
38615;SDS011;24370;51.986;4.666;2023-06-10T09:26:02;387.38;;;365.35;;
38615;SDS011;24370;51.986;4.666;2023-06-10T09:28:30;349.13;;;329.83;;
38615;SDS011;24370;51.986;4.666;2023-06-10T09:31:05;326.98;;;309.05;;
38615;SDS011;24370;51.986;4.666;2023-06-10T09:33:32;318.75;;;301.38;;
38615;SDS011;24370;51.986;4.666;2023-06-10T09:35:58;330.33;;;312.52;;
38615;SDS011;24370;51.986;4.666;2023-06-10T09:38:30;312.55;;;295.90;;
38615;SDS011;24370;51.986;4.666;2023-06-10T09:40:57;304.05;;;287.95;;
38615;SDS011;24370;51.986;4.666;2023-06-10T09:43:23;305.25;;;288.63;;
38615;SDS011;24370;51.986;4.666;2023-06-10T09:46:04;285.08;;;269.85;;
38615;SDS011;24370;51.986;4.666;2023-06-10T09:48:29;289.50;;;273.75;;
38615;SDS011;24370;51.986;4.666;2023-06-10T09:50:55;290.50;;;275.00;;
38615;SDS011;24370;51.986;4.666;2023-06-10T09:53:20;202.57;;;191.95;;
38615;SDS011;24370;51.986;4.666;2023-06-10T09:55:46;149.27;;;141.15;;
38615;SDS011;24370;51.986;4.666;2023-06-10T09:58:11;128.85;;;122.00;;
38615;SDS011;24370;51.986;4.666;2023-06-10T10:00:36;181.60;;;172.07;;
38615;SDS011;24370;51.986;4.666;2023-06-10T10:03:02;169.85;;;160.80;;
38615;SDS011;24370;51.986;4.666;2023-06-10T10:05:28;256.55;;;242.80;;
38615;SDS011;24370;51.986;4.666;2023-06-10T10:07:55;246.98;;;233.70;;
38615;SDS011;24370;51.986;4.666;2023-06-10T10:10:21;235.10;;;222.32;;
38615;SDS011;24370;51.986;4.666;2023-06-10T10:12:48;198.75;;;188.27;;
38615;SDS011;24370;51.986;4.666;2023-06-10T10:15:16;157.13;;;148.80;;
38615;SDS011;24370;51.986;4.666;2023-06-10T10:17:44;127.63;;;120.82;;
38615;SDS011;24370;51.986;4.666;2023-06-10T10:20:14;115.82;;;109.60;;
38615;SDS011;24370;51.986;4.666;2023-06-10T10:22:44;93.63;;;88.63;;
38615;SDS011;24370;51.986;4.666;2023-06-10T10:25:23;126.07;;;119.45;;
38615;SDS011;24370;51.986;4.666;2023-06-10T10:27:55;171.68;;;162.70;;
38615;SDS011;24370;51.986;4.666;2023-06-10T10:30:25;328.70;;;309.45;;
38615;SDS011;24370;51.986;4.666;2023-06-10T10:32:57;321.95;;;303.27;;
38615;SDS011;24370;51.986;4.666;2023-06-10T10:35:26;246.82;;;233.45;;
38615;SDS011;24370;51.986;4.666;2023-06-10T10:37:52;315.23;;;297.33;;
38615;SDS011;24370;51.986;4.666;2023-06-10T10:40:19;236.07;;;223.65;;
38615;SDS011;24370;51.986;4.666;2023-06-10T10:42:47;253.93;;;240.35;;
38615;SDS011;24370;51.986;4.666;2023-06-10T10:45:14;252.48;;;239.05;;
38615;SDS011;24370;51.986;4.666;2023-06-10T10:47:39;284.25;;;268.95;;
38615;SDS011;24370;51.986;4.666;2023-06-10T10:50:16;267.75;;;253.43;;
38615;SDS011;24370;51.986;4.666;2023-06-10T10:53:01;229.40;;;217.35;;
38615;SDS011;24370;51.986;4.666;2023-06-10T10:55:28;291.90;;;276.02;;
38615;SDS011;24370;51.986;4.666;2023-06-10T11:00:28;218.30;;;206.80;;
38615;SDS011;24370;51.986;4.666;2023-06-10T11:02:59;199.00;;;188.55;;
38615;SDS011;24370;51.986;4.666;2023-06-10T11:05:31;260.75;;;246.90;;
38615;SDS011;24370;51.986;4.666;2023-06-10T11:08:05;275.10;;;260.17;;
38615;SDS011;24370;51.986;4.666;2023-06-10T11:10:38;219.18;;;207.48;;
38615;SDS011;24370;51.986;4.666;2023-06-10T11:13:05;228.98;;;216.75;;
38615;SDS011;24370;51.986;4.666;2023-06-10T11:15:33;179.00;;;169.48;;
38615;SDS011;24370;51.986;4.666;2023-06-10T11:18:38;129.20;;;122.30;;
38615;SDS011;24370;51.986;4.666;2023-06-10T11:20:58;133.25;;;126.22;;
38615;SDS011;24370;51.986;4.666;2023-06-10T11:26:12;169.93;;;160.65;;
38615;SDS011;24370;51.986;4.666;2023-06-10T11:29:00;137.10;;;129.93;;
38615;SDS011;24370;51.986;4.666;2023-06-10T11:31:33;120.50;;;114.13;;
38615;SDS011;24370;51.986;4.666;2023-06-10T11:34:05;227.95;;;215.95;;
38615;SDS011;24370;51.986;4.666;2023-06-10T11:36:42;192.45;;;182.25;;
38615;SDS011;24370;51.986;4.666;2023-06-10T11:39:10;187.18;;;177.13;;
38615;SDS011;24370;51.986;4.666;2023-06-10T11:41:36;188.60;;;178.75;;
38615;SDS011;24370;51.986;4.666;2023-06-10T11:44:07;196.95;;;186.40;;
38615;SDS011;24370;51.986;4.666;2023-06-10T11:46:33;155.95;;;147.68;;
38615;SDS011;24370;51.986;4.666;2023-06-10T11:49:02;128.75;;;121.95;;
38615;SDS011;24370;51.986;4.666;2023-06-10T11:51:30;97.28;;;92.22;;
38615;SDS011;24370;51.986;4.666;2023-06-10T11:54:08;184.30;;;174.60;;
38615;SDS011;24370;51.986;4.666;2023-06-10T11:56:37;122.30;;;115.97;;
38615;SDS011;24370;51.986;4.666;2023-06-10T11:59:06;153.10;;;144.55;;
38615;SDS011;24370;51.986;4.666;2023-06-10T12:01:40;123.18;;;116.75;;
38615;SDS011;24370;51.986;4.666;2023-06-10T12:04:08;130.40;;;123.53;;
38615;SDS011;24370;51.986;4.666;2023-06-10T12:06:45;142.05;;;134.32;;
38615;SDS011;24370;51.986;4.666;2023-06-10T12:09:25;170.65;;;161.50;;
38615;SDS011;24370;51.986;4.666;2023-06-10T12:11:54;206.27;;;195.40;;
38615;SDS011;24370;51.986;4.666;2023-06-10T12:17:22;140.68;;;132.85;;
38615;SDS011;24370;51.986;4.666;2023-06-10T12:19:48;193.07;;;183.05;;
38615;SDS011;24370;51.986;4.666;2023-06-10T12:22:14;181.80;;;172.10;;
38615;SDS011;24370;51.986;4.666;2023-06-10T12:24:56;174.10;;;164.98;;
38615;SDS011;24370;51.986;4.666;2023-06-10T12:27:24;185.35;;;175.65;;
38615;SDS011;24370;51.986;4.666;2023-06-10T12:29:53;261.25;;;247.55;;
38615;SDS011;24370;51.986;4.666;2023-06-10T12:32:34;252.55;;;239.00;;
38615;SDS011;24370;51.986;4.666;2023-06-10T12:35:11;265.60;;;251.80;;
38615;SDS011;24370;51.986;4.666;2023-06-10T12:37:38;319.27;;;302.13;;
38615;SDS011;24370;51.986;4.666;2023-06-10T12:40:05;292.95;;;277.55;;
38615;SDS011;24370;51.986;4.666;2023-06-10T12:42:33;306.65;;;290.25;;
38615;SDS011;24370;51.986;4.666;2023-06-10T12:45:01;301.23;;;285.05;;
38615;SDS011;24370;51.986;4.666;2023-06-10T12:47:30;272.38;;;257.92;;
38615;SDS011;24370;51.986;4.666;2023-06-10T12:49:57;262.73;;;248.98;;
38615;SDS011;24370;51.986;4.666;2023-06-10T12:52:24;290.38;;;275.10;;
38615;SDS011;24370;51.986;4.666;2023-06-10T12:54:49;289.85;;;274.40;;
38615;SDS011;24370;51.986;4.666;2023-06-10T12:57:15;301.50;;;285.27;;
38615;SDS011;24370;51.986;4.666;2023-06-10T12:59:40;294.85;;;279.17;;
38615;SDS011;24370;51.986;4.666;2023-06-10T13:02:07;292.67;;;277.27;;
38615;SDS011;24370;51.986;4.666;2023-06-10T13:04:32;302.15;;;286.15;;
38615;SDS011;24370;51.986;4.666;2023-06-10T13:06:58;279.00;;;264.42;;
38615;SDS011;24370;51.986;4.666;2023-06-10T13:09:24;290.17;;;274.65;;
38615;SDS011;24370;51.986;4.666;2023-06-10T13:11:49;294.83;;;279.30;;
38615;SDS011;24370;51.986;4.666;2023-06-10T13:14:15;293.67;;;278.02;;
38615;SDS011;24370;51.986;4.666;2023-06-10T13:16:40;300.00;;;284.10;;
38615;SDS011;24370;51.986;4.666;2023-06-10T13:19:06;290.35;;;275.17;;
38615;SDS011;24370;51.986;4.666;2023-06-10T13:21:37;296.35;;;280.65;;
38615;SDS011;24370;51.986;4.666;2023-06-10T13:24:03;280.10;;;265.45;;
38615;SDS011;24370;51.986;4.666;2023-06-10T13:26:29;302.35;;;286.25;;
38615;SDS011;24370;51.986;4.666;2023-06-10T13:28:54;312.90;;;296.13;;
38615;SDS011;24370;51.986;4.666;2023-06-10T13:31:19;313.52;;;296.73;;
38615;SDS011;24370;51.986;4.666;2023-06-10T13:33:46;327.80;;;309.85;;
38615;SDS011;24370;51.986;4.666;2023-06-10T13:36:12;309.63;;;293.05;;
38615;SDS011;24370;51.986;4.666;2023-06-10T13:38:37;300.65;;;284.67;;
38615;SDS011;24370;51.986;4.666;2023-06-10T13:41:03;312.48;;;295.75;;
38615;SDS011;24370;51.986;4.666;2023-06-10T13:43:28;344.88;;;325.95;;
38615;SDS011;24370;51.986;4.666;2023-06-10T13:45:54;322.77;;;305.40;;
38615;SDS011;24370;51.986;4.666;2023-06-10T13:48:19;337.98;;;319.50;;
38615;SDS011;24370;51.986;4.666;2023-06-10T13:50:45;335.50;;;317.10;;
38615;SDS011;24370;51.986;4.666;2023-06-10T13:53:11;307.05;;;290.65;;
38615;SDS011;24370;51.986;4.666;2023-06-10T13:55:36;328.17;;;310.30;;
38615;SDS011;24370;51.986;4.666;2023-06-10T13:58:02;349.33;;;330.15;;
38615;SDS011;24370;51.986;4.666;2023-06-10T14:00:27;339.85;;;321.33;;
38615;SDS011;24370;51.986;4.666;2023-06-10T14:02:53;320.63;;;303.30;;
38615;SDS011;24370;51.986;4.666;2023-06-10T14:05:18;316.30;;;298.60;;
38615;SDS011;24370;51.986;4.666;2023-06-10T14:07:44;342.08;;;323.42;;